sensor_id;sensor_type;location;lat;lon;timestamp;P1;durP1;ratioP1;P2;durP2;ratioP2
64487;SDS011;50864;45.050;39.014;2023-02-28T09:20:15;17.65;;;8.02;;
64487;SDS011;50864;45.050;39.014;2023-02-28T09:22:41;16.35;;;8.25;;
64487;SDS011;50864;45.050;39.014;2023-02-28T09:25:06;15.95;;;7.40;;
64487;SDS011;50864;45.050;39.014;2023-02-28T09:27:32;19.30;;;8.00;;
64487;SDS011;50864;45.050;39.014;2023-02-28T09:29:58;19.83;;;8.02;;
64487;SDS011;50864;45.050;39.014;2023-02-28T09:32:23;12.73;;;7.10;;
64487;SDS011;50864;45.050;39.014;2023-02-28T09:34:49;14.35;;;7.12;;
64487;SDS011;50864;45.050;39.014;2023-02-28T09:37:15;13.45;;;7.22;;
64487;SDS011;50864;45.050;39.014;2023-02-28T09:39:41;14.25;;;7.85;;
64487;SDS011;50864;45.050;39.014;2023-02-28T09:42:11;12.13;;;6.37;;
64487;SDS011;50864;45.050;39.014;2023-02-28T09:44:43;12.90;;;6.75;;
64487;SDS011;50864;45.050;39.014;2023-02-28T09:47:13;18.55;;;7.15;;
64487;SDS011;50864;45.050;39.014;2023-02-28T09:49:41;15.60;;;7.72;;
64487;SDS011;50864;45.050;39.014;2023-02-28T09:52:09;14.80;;;6.37;;
64487;SDS011;50864;45.050;39.014;2023-02-28T09:54:36;15.98;;;8.55;;
64487;SDS011;50864;45.050;39.014;2023-02-28T10:04:49;14.18;;;7.55;;
64487;SDS011;50864;45.050;39.014;2023-02-28T10:07:34;15.02;;;7.85;;
64487;SDS011;50864;45.050;39.014;2023-02-28T10:10:03;13.82;;;8.05;;
64487;SDS011;50864;45.050;39.014;2023-02-28T10:12:30;17.80;;;9.90;;
64487;SDS011;50864;45.050;39.014;2023-02-28T10:14:57;16.58;;;9.02;;
64487;SDS011;50864;45.050;39.014;2023-02-28T10:17:25;15.00;;;8.80;;
64487;SDS011;50864;45.050;39.014;2023-02-28T10:22:21;27.45;;;9.98;;
64487;SDS011;50864;45.050;39.014;2023-02-28T10:24:49;27.60;;;9.75;;
64487;SDS011;50864;45.050;39.014;2023-02-28T10:27:28;27.90;;;10.80;;
64487;SDS011;50864;45.050;39.014;2023-02-28T10:29:55;15.48;;;8.27;;
64487;SDS011;50864;45.050;39.014;2023-02-28T10:32:22;15.77;;;8.40;;
64487;SDS011;50864;45.050;39.014;2023-02-28T10:34:52;13.85;;;7.82;;
64487;SDS011;50864;45.050;39.014;2023-02-28T10:37:21;18.15;;;8.70;;
64487;SDS011;50864;45.050;39.014;2023-02-28T10:39:46;16.50;;;9.23;;
64487;SDS011;50864;45.050;39.014;2023-02-28T10:42:25;17.55;;;9.60;;
64487;SDS011;50864;45.050;39.014;2023-02-28T10:47:37;15.27;;;8.65;;
64487;SDS011;50864;45.050;39.014;2023-02-28T10:50:25;19.58;;;8.60;;
64487;SDS011;50864;45.050;39.014;2023-02-28T10:52:52;17.12;;;9.10;;
64487;SDS011;50864;45.050;39.014;2023-02-28T10:55:23;15.05;;;8.93;;
64487;SDS011;50864;45.050;39.014;2023-02-28T10:57:50;14.45;;;8.07;;
64487;SDS011;50864;45.050;39.014;2023-02-28T11:00:20;17.40;;;8.98;;
64487;SDS011;50864;45.050;39.014;2023-02-28T11:02:47;13.32;;;7.93;;
64487;SDS011;50864;45.050;39.014;2023-02-28T11:07:51;17.33;;;8.98;;
64487;SDS011;50864;45.050;39.014;2023-02-28T11:10:19;18.48;;;9.32;;
64487;SDS011;50864;45.050;39.014;2023-02-28T11:12:45;19.23;;;10.10;;
64487;SDS011;50864;45.050;39.014;2023-02-28T11:15:46;20.17;;;9.73;;
64487;SDS011;50864;45.050;39.014;2023-02-28T11:20:30;20.25;;;11.18;;
64487;SDS011;50864;45.050;39.014;2023-02-28T11:22:57;21.48;;;10.88;;
64487;SDS011;50864;45.050;39.014;2023-02-28T11:25:33;20.15;;;10.82;;
64487;SDS011;50864;45.050;39.014;2023-02-28T11:28:01;19.92;;;9.85;;
64487;SDS011;50864;45.050;39.014;2023-02-28T11:33:21;19.15;;;9.27;;
64487;SDS011;50864;45.050;39.014;2023-02-28T11:35:48;15.20;;;8.82;;
64487;SDS011;50864;45.050;39.014;2023-02-28T11:38:14;16.33;;;8.98;;
64487;SDS011;50864;45.050;39.014;2023-02-28T11:40:46;16.27;;;9.10;;
64487;SDS011;50864;45.050;39.014;2023-02-28T11:43:24;20.85;;;9.73;;
64487;SDS011;50864;45.050;39.014;2023-02-28T11:49:22;17.70;;;9.00;;
64487;SDS011;50864;45.050;39.014;2023-02-28T11:52:10;17.02;;;8.23;;
64487;SDS011;50864;45.050;39.014;2023-02-28T11:56:48;20.55;;;9.63;;
64487;SDS011;50864;45.050;39.014;2023-02-28T12:07:08;15.77;;;8.57;;
64487;SDS011;50864;45.050;39.014;2023-02-28T12:09:40;17.20;;;9.30;;
64487;SDS011;50864;45.050;39.014;2023-02-28T12:17:16;20.02;;;9.43;;
64487;SDS011;50864;45.050;39.014;2023-02-28T12:24:49;16.48;;;8.32;;
64487;SDS011;50864;45.050;39.014;2023-02-28T12:27:21;15.30;;;9.05;;
64487;SDS011;50864;45.050;39.014;2023-02-28T12:29:56;16.02;;;8.27;;
64487;SDS011;50864;45.050;39.014;2023-02-28T12:34:55;18.83;;;10.18;;
64487;SDS011;50864;45.050;39.014;2023-02-28T12:37:24;18.37;;;10.18;;
64487;SDS011;50864;45.050;39.014;2023-02-28T12:39:52;15.50;;;9.65;;
64487;SDS011;50864;45.050;39.014;2023-02-28T12:42:24;18.35;;;9.73;;
64487;SDS011;50864;45.050;39.014;2023-02-28T12:44:53;18.62;;;10.10;;
64487;SDS011;50864;45.050;39.014;2023-02-28T12:47:19;18.12;;;10.15;;
64487;SDS011;50864;45.050;39.014;2023-02-28T12:52:11;17.80;;;8.95;;
64487;SDS011;50864;45.050;39.014;2023-02-28T12:59:49;17.87;;;9.60;;
64487;SDS011;50864;45.050;39.014;2023-02-28T13:09:57;15.18;;;8.20;;
64487;SDS011;50864;45.050;39.014;2023-02-28T13:12:23;16.00;;;8.73;;
64487;SDS011;50864;45.050;39.014;2023-02-28T13:14:49;16.80;;;8.48;;
64487;SDS011;50864;45.050;39.014;2023-02-28T13:17:21;21.80;;;8.15;;
64487;SDS011;50864;45.050;39.014;2023-02-28T13:22:21;12.97;;;6.80;;
64487;SDS011;50864;45.050;39.014;2023-02-28T13:25:01;12.98;;;7.18;;
64487;SDS011;50864;45.050;39.014;2023-02-28T13:27:34;15.10;;;7.30;;
64487;SDS011;50864;45.050;39.014;2023-02-28T13:30:02;13.85;;;7.87;;
64487;SDS011;50864;45.050;39.014;2023-02-28T13:32:46;18.52;;;8.45;;
64487;SDS011;50864;45.050;39.014;2023-02-28T13:35:36;18.90;;;10.10;;
64487;SDS011;50864;45.050;39.014;2023-02-28T13:38:14;17.08;;;8.98;;
64487;SDS011;50864;45.050;39.014;2023-02-28T13:40:41;20.92;;;11.07;;
64487;SDS011;50864;45.050;39.014;2023-02-28T13:43:07;19.42;;;10.30;;
64487;SDS011;50864;45.050;39.014;2023-02-28T13:45:33;21.50;;;11.15;;
64487;SDS011;50864;45.050;39.014;2023-02-28T13:48:25;22.35;;;11.73;;
64487;SDS011;50864;45.050;39.014;2023-02-28T13:50:49;25.35;;;12.50;;
64487;SDS011;50864;45.050;39.014;2023-02-28T13:55:49;23.45;;;10.30;;
64487;SDS011;50864;45.050;39.014;2023-02-28T13:58:33;25.35;;;12.75;;
64487;SDS011;50864;45.050;39.014;2023-02-28T14:01:05;24.95;;;11.88;;
64487;SDS011;50864;45.050;39.014;2023-02-28T14:08:50;18.87;;;10.77;;
64487;SDS011;50864;45.050;39.014;2023-02-28T14:11:25;20.27;;;10.25;;
64487;SDS011;50864;45.050;39.014;2023-02-28T14:13:51;23.50;;;12.37;;
64487;SDS011;50864;45.050;39.014;2023-02-28T14:16:19;22.55;;;11.90;;
64487;SDS011;50864;45.050;39.014;2023-02-28T14:23:46;25.12;;;10.95;;
64487;SDS011;50864;45.050;39.014;2023-02-28T14:31:45;18.33;;;9.18;;
64487;SDS011;50864;45.050;39.014;2023-02-28T14:36:58;22.05;;;12.35;;
64487;SDS011;50864;45.050;39.014;2023-02-28T14:39:26;23.85;;;11.80;;
64487;SDS011;50864;45.050;39.014;2023-02-28T14:41:56;33.75;;;14.70;;
64487;SDS011;50864;45.050;39.014;2023-02-28T14:44:24;56.83;;;13.00;;
64487;SDS011;50864;45.050;39.014;2023-02-28T14:46:52;26.70;;;11.88;;
64487;SDS011;50864;45.050;39.014;2023-02-28T14:49:20;24.25;;;12.25;;
64487;SDS011;50864;45.050;39.014;2023-02-28T14:51:50;23.85;;;12.70;;
64487;SDS011;50864;45.050;39.014;2023-02-28T14:54:26;23.40;;;11.48;;
64487;SDS011;50864;45.050;39.014;2023-02-28T14:56:52;22.40;;;12.35;;
64487;SDS011;50864;45.050;39.014;2023-02-28T14:59:26;24.87;;;11.55;;
64487;SDS011;50864;45.050;39.014;2023-02-28T15:02:12;24.60;;;12.98;;
64487;SDS011;50864;45.050;39.014;2023-02-28T15:04:38;28.02;;;13.43;;
64487;SDS011;50864;45.050;39.014;2023-02-28T15:07:10;32.88;;;13.27;;
64487;SDS011;50864;45.050;39.014;2023-02-28T15:09:38;29.95;;;13.77;;
64487;SDS011;50864;45.050;39.014;2023-02-28T15:12:04;26.58;;;12.23;;
64487;SDS011;50864;45.050;39.014;2023-02-28T15:14:30;35.58;;;15.00;;
64487;SDS011;50864;45.050;39.014;2023-02-28T15:17:00;27.42;;;12.45;;
64487;SDS011;50864;45.050;39.014;2023-02-28T15:19:28;25.42;;;12.02;;
64487;SDS011;50864;45.050;39.014;2023-02-28T15:24:30;22.90;;;11.30;;
64487;SDS011;50864;45.050;39.014;2023-02-28T15:26:57;23.55;;;11.43;;
64487;SDS011;50864;45.050;39.014;2023-02-28T15:29:24;21.00;;;10.23;;
64487;SDS011;50864;45.050;39.014;2023-02-28T15:31:52;24.35;;;10.25;;
64487;SDS011;50864;45.050;39.014;2023-02-28T15:34:27;24.37;;;11.15;;
64487;SDS011;50864;45.050;39.014;2023-02-28T15:36:55;23.77;;;10.00;;
64487;SDS011;50864;45.050;39.014;2023-02-28T15:39:21;23.55;;;10.00;;
64487;SDS011;50864;45.050;39.014;2023-02-28T15:41:47;22.30;;;10.40;;
64487;SDS011;50864;45.050;39.014;2023-02-28T15:44:22;24.40;;;10.80;;
64487;SDS011;50864;45.050;39.014;2023-02-28T15:49:21;26.42;;;11.43;;
64487;SDS011;50864;45.050;39.014;2023-02-28T15:51:48;18.45;;;8.95;;
64487;SDS011;50864;45.050;39.014;2023-02-28T15:54:15;17.85;;;8.48;;
64487;SDS011;50864;45.050;39.014;2023-02-28T15:56:44;23.92;;;11.88;;
64487;SDS011;50864;45.050;39.014;2023-02-28T15:59:15;23.85;;;9.98;;
64487;SDS011;50864;45.050;39.014;2023-02-28T16:01:41;24.63;;;11.52;;
64487;SDS011;50864;45.050;39.014;2023-02-28T16:09:23;23.60;;;10.20;;
64487;SDS011;50864;45.050;39.014;2023-02-28T16:11:49;23.85;;;10.80;;
64487;SDS011;50864;45.050;39.014;2023-02-28T16:14:20;20.65;;;9.40;;
64487;SDS011;50864;45.050;39.014;2023-02-28T16:16:49;14.75;;;7.80;;
64487;SDS011;50864;45.050;39.014;2023-02-28T16:19:15;19.95;;;9.52;;
64487;SDS011;50864;45.050;39.014;2023-02-28T16:21:40;21.52;;;10.13;;
64487;SDS011;50864;45.050;39.014;2023-02-28T16:24:07;11.70;;;6.55;;
64487;SDS011;50864;45.050;39.014;2023-02-28T16:26:32;19.92;;;8.52;;
64487;SDS011;50864;45.050;39.014;2023-02-28T16:29:00;9.23;;;5.18;;
64487;SDS011;50864;45.050;39.014;2023-02-28T16:31:26;13.70;;;7.68;;
64487;SDS011;50864;45.050;39.014;2023-02-28T16:33:51;16.00;;;7.85;;
64487;SDS011;50864;45.050;39.014;2023-02-28T16:36:18;17.10;;;8.85;;
64487;SDS011;50864;45.050;39.014;2023-02-28T16:38:44;19.08;;;8.90;;
64487;SDS011;50864;45.050;39.014;2023-02-28T16:41:12;15.60;;;9.02;;
64487;SDS011;50864;45.050;39.014;2023-02-28T16:43:41;19.17;;;8.43;;
64487;SDS011;50864;45.050;39.014;2023-02-28T16:46:08;20.70;;;9.23;;
64487;SDS011;50864;45.050;39.014;2023-02-28T16:48:35;18.42;;;9.70;;
64487;SDS011;50864;45.050;39.014;2023-02-28T16:51:00;20.90;;;9.40;;
64487;SDS011;50864;45.050;39.014;2023-02-28T16:53:26;16.87;;;8.48;;
64487;SDS011;50864;45.050;39.014;2023-02-28T16:55:52;23.30;;;10.93;;
64487;SDS011;50864;45.050;39.014;2023-02-28T16:58:17;23.65;;;10.90;;
64487;SDS011;50864;45.050;39.014;2023-02-28T17:00:44;18.15;;;9.77;;
64487;SDS011;50864;45.050;39.014;2023-02-28T17:03:15;17.08;;;9.60;;
64487;SDS011;50864;45.050;39.014;2023-02-28T17:05:44;17.90;;;8.70;;
64487;SDS011;50864;45.050;39.014;2023-02-28T17:08:10;19.02;;;9.68;;
64487;SDS011;50864;45.050;39.014;2023-02-28T17:10:36;12.10;;;6.78;;
64487;SDS011;50864;45.050;39.014;2023-02-28T17:13:01;15.30;;;6.37;;
64487;SDS011;50864;45.050;39.014;2023-02-28T17:15:27;16.08;;;6.93;;
64487;SDS011;50864;45.050;39.014;2023-02-28T17:17:53;13.40;;;7.12;;
64487;SDS011;50864;45.050;39.014;2023-02-28T17:20:19;11.43;;;6.03;;
64487;SDS011;50864;45.050;39.014;2023-02-28T17:22:48;12.73;;;6.72;;
64487;SDS011;50864;45.050;39.014;2023-02-28T17:25:14;10.35;;;5.43;;
64487;SDS011;50864;45.050;39.014;2023-02-28T17:27:39;17.17;;;7.87;;
64487;SDS011;50864;45.050;39.014;2023-02-28T17:30:15;13.48;;;6.35;;
64487;SDS011;50864;45.050;39.014;2023-02-28T17:32:41;7.30;;;4.22;;
64487;SDS011;50864;45.050;39.014;2023-02-28T17:35:07;8.15;;;5.18;;
64487;SDS011;50864;45.050;39.014;2023-02-28T17:37:33;14.15;;;6.05;;
64487;SDS011;50864;45.050;39.014;2023-02-28T17:39:59;11.38;;;5.32;;
64487;SDS011;50864;45.050;39.014;2023-02-28T17:42:25;12.98;;;5.37;;
64487;SDS011;50864;45.050;39.014;2023-02-28T17:44:50;17.20;;;7.60;;
64487;SDS011;50864;45.050;39.014;2023-02-28T17:47:16;11.60;;;5.78;;
64487;SDS011;50864;45.050;39.014;2023-02-28T17:49:41;11.38;;;5.50;;
64487;SDS011;50864;45.050;39.014;2023-02-28T17:52:07;12.85;;;6.47;;
64487;SDS011;50864;45.050;39.014;2023-02-28T17:54:33;15.02;;;7.07;;
64487;SDS011;50864;45.050;39.014;2023-02-28T17:56:59;11.25;;;5.80;;
64487;SDS011;50864;45.050;39.014;2023-02-28T17:59:25;12.80;;;6.50;;
64487;SDS011;50864;45.050;39.014;2023-02-28T18:01:50;15.90;;;7.03;;
64487;SDS011;50864;45.050;39.014;2023-02-28T18:04:16;14.73;;;7.60;;
64487;SDS011;50864;45.050;39.014;2023-02-28T18:06:45;14.75;;;7.55;;
64487;SDS011;50864;45.050;39.014;2023-02-28T18:09:16;13.77;;;7.30;;
64487;SDS011;50864;45.050;39.014;2023-02-28T18:11:42;14.57;;;7.12;;
64487;SDS011;50864;45.050;39.014;2023-02-28T18:14:13;18.27;;;7.68;;
64487;SDS011;50864;45.050;39.014;2023-02-28T18:16:39;16.27;;;7.22;;
64487;SDS011;50864;45.050;39.014;2023-02-28T18:19:05;15.63;;;8.02;;
64487;SDS011;50864;45.050;39.014;2023-02-28T18:21:32;15.98;;;7.30;;
64487;SDS011;50864;45.050;39.014;2023-02-28T18:23:57;17.37;;;8.05;;
64487;SDS011;50864;45.050;39.014;2023-02-28T18:26:23;17.00;;;8.35;;
64487;SDS011;50864;45.050;39.014;2023-02-28T18:28:49;15.77;;;8.07;;
64487;SDS011;50864;45.050;39.014;2023-02-28T18:31:16;20.10;;;8.75;;
64487;SDS011;50864;45.050;39.014;2023-02-28T18:33:43;17.17;;;7.43;;
64487;SDS011;50864;45.050;39.014;2023-02-28T18:36:08;25.02;;;9.52;;
64487;SDS011;50864;45.050;39.014;2023-02-28T18:38:35;17.30;;;6.68;;
64487;SDS011;50864;45.050;39.014;2023-02-28T18:41:02;15.13;;;6.00;;
64487;SDS011;50864;45.050;39.014;2023-02-28T18:43:28;16.58;;;8.13;;
64487;SDS011;50864;45.050;39.014;2023-02-28T18:45:54;11.30;;;5.43;;
64487;SDS011;50864;45.050;39.014;2023-02-28T18:48:20;12.95;;;6.82;;
64487;SDS011;50864;45.050;39.014;2023-02-28T18:50:50;18.08;;;8.40;;
64487;SDS011;50864;45.050;39.014;2023-02-28T18:53:16;14.45;;;7.55;;
64487;SDS011;50864;45.050;39.014;2023-02-28T18:55:42;16.17;;;7.55;;
64487;SDS011;50864;45.050;39.014;2023-02-28T18:58:08;14.27;;;7.85;;
64487;SDS011;50864;45.050;39.014;2023-02-28T19:00:34;18.48;;;7.07;;
64487;SDS011;50864;45.050;39.014;2023-02-28T19:03:00;11.23;;;6.03;;
64487;SDS011;50864;45.050;39.014;2023-02-28T19:05:26;12.82;;;6.70;;
64487;SDS011;50864;45.050;39.014;2023-02-28T19:07:55;14.70;;;7.15;;
64487;SDS011;50864;45.050;39.014;2023-02-28T19:10:21;17.65;;;8.00;;
64487;SDS011;50864;45.050;39.014;2023-02-28T19:12:46;18.48;;;9.13;;
64487;SDS011;50864;45.050;39.014;2023-02-28T19:15:12;14.30;;;6.75;;
64487;SDS011;50864;45.050;39.014;2023-02-28T19:17:38;16.67;;;6.78;;
64487;SDS011;50864;45.050;39.014;2023-02-28T19:20:04;14.25;;;6.82;;
64487;SDS011;50864;45.050;39.014;2023-02-28T19:22:30;13.02;;;6.40;;
64487;SDS011;50864;45.050;39.014;2023-02-28T19:24:56;10.90;;;5.57;;
64487;SDS011;50864;45.050;39.014;2023-02-28T19:27:22;8.15;;;4.43;;
64487;SDS011;50864;45.050;39.014;2023-02-28T19:29:48;9.45;;;4.32;;
64487;SDS011;50864;45.050;39.014;2023-02-28T19:32:14;8.85;;;5.00;;
64487;SDS011;50864;45.050;39.014;2023-02-28T19:34:40;13.75;;;5.57;;
64487;SDS011;50864;45.050;39.014;2023-02-28T19:37:05;10.32;;;5.22;;
64487;SDS011;50864;45.050;39.014;2023-02-28T19:39:31;10.23;;;5.22;;
64487;SDS011;50864;45.050;39.014;2023-02-28T19:42:12;13.38;;;6.12;;
64487;SDS011;50864;45.050;39.014;2023-02-28T19:44:38;11.12;;;4.97;;
64487;SDS011;50864;45.050;39.014;2023-02-28T19:47:04;10.93;;;5.85;;
64487;SDS011;50864;45.050;39.014;2023-02-28T19:49:30;14.57;;;6.68;;
64487;SDS011;50864;45.050;39.014;2023-02-28T19:51:56;13.68;;;7.18;;
64487;SDS011;50864;45.050;39.014;2023-02-28T19:54:22;11.55;;;5.75;;
64487;SDS011;50864;45.050;39.014;2023-02-28T19:56:48;13.73;;;6.62;;
64487;SDS011;50864;45.050;39.014;2023-02-28T19:59:14;10.75;;;5.62;;
64487;SDS011;50864;45.050;39.014;2023-02-28T20:01:39;16.08;;;7.60;;
64487;SDS011;50864;45.050;39.014;2023-02-28T20:04:06;13.15;;;6.85;;
64487;SDS011;50864;45.050;39.014;2023-02-28T20:06:31;11.50;;;5.55;;
64487;SDS011;50864;45.050;39.014;2023-02-28T20:08:57;16.50;;;7.15;;
64487;SDS011;50864;45.050;39.014;2023-02-28T20:11:23;12.95;;;6.28;;
64487;SDS011;50864;45.050;39.014;2023-02-28T20:13:52;14.18;;;6.97;;
64487;SDS011;50864;45.050;39.014;2023-02-28T20:16:18;14.57;;;7.18;;
64487;SDS011;50864;45.050;39.014;2023-02-28T20:18:47;11.98;;;5.37;;
64487;SDS011;50864;45.050;39.014;2023-02-28T20:21:15;12.95;;;6.43;;
64487;SDS011;50864;45.050;39.014;2023-02-28T20:23:42;11.98;;;5.60;;
64487;SDS011;50864;45.050;39.014;2023-02-28T20:26:08;10.32;;;5.18;;
64487;SDS011;50864;45.050;39.014;2023-02-28T20:28:34;5.72;;;3.72;;
64487;SDS011;50864;45.050;39.014;2023-02-28T20:31:00;12.82;;;6.28;;
64487;SDS011;50864;45.050;39.014;2023-02-28T20:33:26;9.57;;;4.97;;
64487;SDS011;50864;45.050;39.014;2023-02-28T20:36:01;10.43;;;5.60;;
64487;SDS011;50864;45.050;39.014;2023-02-28T20:38:27;8.38;;;4.57;;
64487;SDS011;50864;45.050;39.014;2023-02-28T20:40:54;12.05;;;5.95;;
64487;SDS011;50864;45.050;39.014;2023-02-28T20:43:20;7.28;;;4.30;;
64487;SDS011;50864;45.050;39.014;2023-02-28T20:45:55;11.35;;;6.18;;
64487;SDS011;50864;45.050;39.014;2023-02-28T20:48:26;12.18;;;6.28;;
64487;SDS011;50864;45.050;39.014;2023-02-28T20:50:53;9.27;;;4.90;;
64487;SDS011;50864;45.050;39.014;2023-02-28T20:53:19;13.73;;;7.30;;
64487;SDS011;50864;45.050;39.014;2023-02-28T20:56:01;11.70;;;5.50;;
64487;SDS011;50864;45.050;39.014;2023-02-28T20:58:28;12.90;;;6.82;;
64487;SDS011;50864;45.050;39.014;2023-02-28T21:01:01;15.73;;;7.05;;
64487;SDS011;50864;45.050;39.014;2023-02-28T21:03:27;13.30;;;7.28;;
64487;SDS011;50864;45.050;39.014;2023-02-28T21:05:57;12.20;;;6.18;;
64487;SDS011;50864;45.050;39.014;2023-02-28T21:08:24;11.80;;;7.05;;
64487;SDS011;50864;45.050;39.014;2023-02-28T21:10:49;14.27;;;7.82;;
64487;SDS011;50864;45.050;39.014;2023-02-28T21:13:15;18.02;;;8.82;;
64487;SDS011;50864;45.050;39.014;2023-02-28T21:15:40;17.08;;;9.48;;
64487;SDS011;50864;45.050;39.014;2023-02-28T21:18:06;13.70;;;7.18;;
64487;SDS011;50864;45.050;39.014;2023-02-28T21:20:32;15.73;;;8.25;;
64487;SDS011;50864;45.050;39.014;2023-02-28T21:22:57;16.00;;;8.90;;
64487;SDS011;50864;45.050;39.014;2023-02-28T21:25:23;23.25;;;8.93;;
64487;SDS011;50864;45.050;39.014;2023-02-28T21:27:50;16.02;;;8.55;;
64487;SDS011;50864;45.050;39.014;2023-02-28T21:30:20;18.60;;;9.68;;
64487;SDS011;50864;45.050;39.014;2023-02-28T21:32:46;17.87;;;10.00;;
64487;SDS011;50864;45.050;39.014;2023-02-28T21:35:12;12.43;;;7.03;;
64487;SDS011;50864;45.050;39.014;2023-02-28T21:37:37;14.90;;;7.28;;
64487;SDS011;50864;45.050;39.014;2023-02-28T21:40:03;12.63;;;7.15;;
64487;SDS011;50864;45.050;39.014;2023-02-28T21:42:29;16.33;;;7.90;;
64487;SDS011;50864;45.050;39.014;2023-02-28T21:44:55;15.32;;;8.35;;
64487;SDS011;50864;45.050;39.014;2023-02-28T21:47:22;14.10;;;8.23;;
64487;SDS011;50864;45.050;39.014;2023-02-28T21:49:49;12.00;;;6.10;;
64487;SDS011;50864;45.050;39.014;2023-02-28T21:52:14;11.43;;;6.93;;
64487;SDS011;50864;45.050;39.014;2023-02-28T21:54:40;12.90;;;7.43;;
64487;SDS011;50864;45.050;39.014;2023-02-28T21:57:06;9.65;;;5.50;;
64487;SDS011;50864;45.050;39.014;2023-02-28T21:59:32;12.32;;;7.00;;
64487;SDS011;50864;45.050;39.014;2023-02-28T22:01:58;14.35;;;8.02;;
64487;SDS011;50864;45.050;39.014;2023-02-28T22:04:23;15.05;;;8.23;;
64487;SDS011;50864;45.050;39.014;2023-02-28T22:06:53;14.00;;;7.62;;
64487;SDS011;50864;45.050;39.014;2023-02-28T22:09:19;15.63;;;9.23;;
64487;SDS011;50864;45.050;39.014;2023-02-28T22:11:45;15.52;;;7.95;;
64487;SDS011;50864;45.050;39.014;2023-02-28T22:14:11;16.20;;;8.10;;
64487;SDS011;50864;45.050;39.014;2023-02-28T22:16:37;14.23;;;7.93;;
64487;SDS011;50864;45.050;39.014;2023-02-28T22:19:04;15.45;;;8.15;;
64487;SDS011;50864;45.050;39.014;2023-02-28T22:21:32;13.07;;;7.00;;
64487;SDS011;50864;45.050;39.014;2023-02-28T22:23:58;16.08;;;8.63;;
64487;SDS011;50864;45.050;39.014;2023-02-28T22:26:24;17.45;;;9.88;;
64487;SDS011;50864;45.050;39.014;2023-02-28T22:28:49;14.85;;;7.62;;
64487;SDS011;50864;45.050;39.014;2023-02-28T22:33:44;16.10;;;8.55;;
64487;SDS011;50864;45.050;39.014;2023-02-28T22:36:11;12.07;;;6.62;;
64487;SDS011;50864;45.050;39.014;2023-02-28T22:38:37;14.40;;;8.63;;
64487;SDS011;50864;45.050;39.014;2023-02-28T22:41:03;18.40;;;9.27;;
64487;SDS011;50864;45.050;39.014;2023-02-28T22:43:29;14.95;;;8.25;;
64487;SDS011;50864;45.050;39.014;2023-02-28T22:45:55;16.45;;;8.40;;
64487;SDS011;50864;45.050;39.014;2023-02-28T22:48:21;13.65;;;7.35;;
64487;SDS011;50864;45.050;39.014;2023-02-28T22:50:46;13.90;;;6.57;;
64487;SDS011;50864;45.050;39.014;2023-02-28T22:53:12;14.02;;;7.97;;
64487;SDS011;50864;45.050;39.014;2023-02-28T22:55:38;11.43;;;6.68;;
64487;SDS011;50864;45.050;39.014;2023-02-28T22:58:03;14.52;;;7.87;;
64487;SDS011;50864;45.050;39.014;2023-02-28T23:00:29;11.07;;;6.55;;
64487;SDS011;50864;45.050;39.014;2023-02-28T23:02:55;14.05;;;8.45;;
64487;SDS011;50864;45.050;39.014;2023-02-28T23:05:20;14.93;;;8.23;;
64487;SDS011;50864;45.050;39.014;2023-02-28T23:07:46;13.05;;;7.35;;
64487;SDS011;50864;45.050;39.014;2023-02-28T23:10:13;17.12;;;8.70;;
64487;SDS011;50864;45.050;39.014;2023-02-28T23:12:39;11.85;;;6.82;;
64487;SDS011;50864;45.050;39.014;2023-02-28T23:15:19;14.60;;;8.20;;
64487;SDS011;50864;45.050;39.014;2023-02-28T23:17:45;14.87;;;7.43;;
64487;SDS011;50864;45.050;39.014;2023-02-28T23:20:11;11.98;;;6.87;;
64487;SDS011;50864;45.050;39.014;2023-02-28T23:22:37;8.35;;;4.90;;
64487;SDS011;50864;45.050;39.014;2023-02-28T23:25:03;6.82;;;4.25;;
64487;SDS011;50864;45.050;39.014;2023-02-28T23:27:29;6.20;;;4.30;;
64487;SDS011;50864;45.050;39.014;2023-02-28T23:29:55;5.87;;;3.55;;
64487;SDS011;50864;45.050;39.014;2023-02-28T23:32:20;8.18;;;4.47;;
64487;SDS011;50864;45.050;39.014;2023-02-28T23:34:46;8.38;;;4.97;;
64487;SDS011;50864;45.050;39.014;2023-02-28T23:37:12;11.15;;;5.65;;
64487;SDS011;50864;45.050;39.014;2023-02-28T23:39:37;6.35;;;3.58;;
64487;SDS011;50864;45.050;39.014;2023-02-28T23:42:03;7.15;;;4.10;;
64487;SDS011;50864;45.050;39.014;2023-02-28T23:44:29;6.55;;;3.53;;
64487;SDS011;50864;45.050;39.014;2023-02-28T23:46:55;8.73;;;4.55;;
64487;SDS011;50864;45.050;39.014;2023-02-28T23:49:20;7.12;;;3.67;;
64487;SDS011;50864;45.050;39.014;2023-02-28T23:51:47;10.13;;;5.45;;
64487;SDS011;50864;45.050;39.014;2023-02-28T23:54:13;9.38;;;4.37;;
64487;SDS011;50864;45.050;39.014;2023-02-28T23:56:39;9.35;;;4.72;;
64487;SDS011;50864;45.050;39.014;2023-02-28T23:59:05;8.30;;;4.60;;
